aviador You're here:

OPPS Decoded Metar

PESHAWAR in PAKISTAN
Report Time2018-02-22 08:30:00
UTC Time2018-02-22 08:53:38
Flight Rules mvfr MVFR
Wind050° at 04 kt
W.Decomp.*RWY 35: 2.1 kt HW 3.4 kt RCW
W.Rank050° ranks 1
Current wind is below 050° avg. (7.3)
Visibility5000 m
Phenomena:Haze
Clouds:Few 040 Hf
Few 100 Hf
Expected CloudBase > 6,000 ft AGL from Temp-Dew spread
CeilingNone
Temp23°C (ISA +10)
Dew Point08°C (38% RH)
AAT21.1°C
QNH1013 hPa
Density Alt2,530 ft
Elevation1,181 ft
Report Wrong Elevation
Raw Report
METAR OPPS 220830Z 05004KT 5000 HZ FEW040 FEW100 23/08 Q1013=

Extra information for OPPS:More info

Metar Taf Metar & Taf Last 4 Metars F.Rules Stats Wind Profile Meteogram Temp Stats Airport Information Weather charts Add Link Nearby VenuesMetar ALERT Operation Metar Decoded Social comments